Time;durP1;ratioP1;P1;durP2;ratioP2;P2;SDS_P1;SDS_P2;PMS_P1;PMS_P2;Temp;Humidity;BMP_temperature;BMP_pressure;BME280_temperature;BME280_humidity;BME280_pressure;Samples;Min_cycle;Max_cycle;Signal;HPM_P1;HPM_P2
2022/11/22 00:01:27;;;;;;;;;;;24.20;35.70;;;;;;490678;242;2145;-71
2022/11/22 00:03:29;;;;;;;;;;;24.20;35.90;;;;;;490684;242;1296;-71
2022/11/22 00:05:30;;;;;;;;;;;24.10;35.60;;;;;;490687;242;1227;-71
2022/11/22 00:07:31;;;;;;;;;;;24.10;36.00;;;;;;490653;242;1191;-72
2022/11/22 00:09:33;;;;;;;;;;;24.10;36.00;;;;;;490694;242;1225;-72
2022/11/22 00:11:34;;;;;;;;;;;24.10;35.50;;;;;;490711;242;1168;-71
2022/11/22 00:13:35;;;;;;;;;;;24.10;35.70;;;;;;490781;242;1133;-71
2022/11/22 00:15:37;;;;;;;;;;;24.20;36.20;;;;;;490800;242;1128;-71
2022/11/22 00:17:38;;;;;;;;;;;24.20;36.30;;;;;;490756;242;1180;-71
2022/11/22 00:19:40;;;;;;;;;;;24.20;35.40;;;;;;490733;242;1233;-72
2022/11/22 00:21:41;;;;;;;;;;;24.20;35.80;;;;;;490746;242;2239;-71
2022/11/22 00:23:42;;;;;;;;;;;24.10;36.10;;;;;;490771;242;1267;-71
2022/11/22 00:25:43;;;;;;;;;;;24.20;35.70;;;;;;490764;242;1197;-71
2022/11/22 00:27:45;;;;;;;;;;;24.20;35.50;;;;;;490840;242;1378;-71
2022/11/22 00:29:46;;;;;;;;;;;24.10;35.60;;;;;;490738;242;1198;-71
2022/11/22 00:31:47;;;;;;;;;;;24.20;35.60;;;;;;490710;242;1382;-71
2022/11/22 00:33:49;;;;;;;;;;;24.10;36.10;;;;;;490782;242;1207;-71
2022/11/22 00:35:50;;;;;;;;;;;24.20;35.80;;;;;;490731;242;1191;-71
2022/11/22 00:37:51;;;;;;;;;;;24.10;35.30;;;;;;490781;242;1197;-71
2022/11/22 00:39:53;;;;;;;;;;;24.10;36.00;;;;;;490893;242;1226;-71
2022/11/22 00:41:54;;;;;;;;;;;24.10;35.80;;;;;;490818;242;2192;-71
2022/11/22 00:43:55;;;;;;;;;;;24.10;35.60;;;;;;490833;242;1196;-71
2022/11/22 00:45:57;;;;;;;;;;;24.10;36.20;;;;;;490849;242;1254;-71
2022/11/22 00:47:58;;;;;;;;;;;24.10;35.80;;;;;;490735;242;1197;-71
2022/11/22 00:49:59;;;;;;;;;;;24.10;35.50;;;;;;490934;242;1182;-71
2022/11/22 00:52:01;;;;;;;;;;;24.10;35.80;;;;;;490894;242;1196;-71
2022/11/22 00:54:02;;;;;;;;;;;24.10;35.90;;;;;;490899;242;1217;-71
2022/11/22 00:56:03;;;;;;;;;;;24.10;35.90;;;;;;490888;242;1228;-71
2022/11/22 00:58:05;;;;;;;;;;;24.10;36.10;;;;;;490839;242;1233;-71
2022/11/22 01:00:06;;;;;;;;;;;24.00;35.50;;;;;;490817;242;1141;-71
2022/11/22 01:02:08;;;;;;;;;;;24.10;36.20;;;;;;490888;242;2204;-71
2022/11/22 01:04:09;;;;;;;;;;;24.00;36.10;;;;;;490776;242;1186;-71
2022/11/22 01:06:10;;;;;;;;;;;24.00;35.60;;;;;;490768;242;1304;-71
2022/11/22 01:08:11;;;;;;;;;;;24.10;36.10;;;;;;490743;242;1150;-71
2022/11/22 01:10:13;;;;;;;;;;;24.10;36.10;;;;;;490747;242;1309;-71
2022/11/22 01:12:14;;;;;;;;;;;24.10;35.80;;;;;;490762;242;1191;-71
2022/11/22 01:14:16;;;;;;;;;;;24.10;35.60;;;;;;490742;242;1368;-71
2022/11/22 01:16:17;;;;;;;;;;;24.00;36.40;;;;;;490809;242;1184;-71
2022/11/22 01:18:18;;;;;;;;;;;24.10;35.60;;;;;;490773;242;1373;-71
2022/11/22 01:20:20;;;;;;;;;;;24.10;35.80;;;;;;490732;242;1192;-71
2022/11/22 01:22:21;;;;;;;;;;;24.10;36.30;;;;;;490758;242;2144;-71
2022/11/22 01:24:22;;;;;;;;;;;24.10;35.70;;;;;;490798;242;1232;-71
2022/11/22 01:26:23;;;;;;;;;;;24.10;35.50;;;;;;490754;242;1176;-72
2022/11/22 01:28:25;;;;;;;;;;;24.10;35.50;;;;;;490795;242;1147;-71
2022/11/22 01:30:26;;;;;;;;;;;24.10;35.90;;;;;;490828;242;1244;-71
2022/11/22 01:32:28;;;;;;;;;;;24.10;35.80;;;;;;490807;242;1270;-71
2022/11/22 01:34:29;;;;;;;;;;;24.10;35.70;;;;;;490854;242;1232;-71
2022/11/22 01:36:30;;;;;;;;;;;24.10;35.70;;;;;;490824;242;1295;-72
2022/11/22 01:38:32;;;;;;;;;;;24.10;35.90;;;;;;490817;242;1213;-71
2022/11/22 01:40:33;;;;;;;;;;;24.10;35.80;;;;;;490844;242;1204;-71
2022/11/22 01:42:34;;;;;;;;;;;24.10;35.80;;;;;;490836;242;2176;-71
2022/11/22 01:44:36;;;;;;;;;;;24.10;35.90;;;;;;490761;242;1323;-71
2022/11/22 01:46:37;;;;;;;;;;;24.10;35.70;;;;;;490852;242;1224;-71
2022/11/22 01:48:38;;;;;;;;;;;24.10;36.10;;;;;;490854;242;1163;-71
2022/11/22 01:50:40;;;;;;;;;;;24.10;35.70;;;;;;490862;242;1156;-71
2022/11/22 01:52:41;;;;;;;;;;;24.10;35.90;;;;;;490915;242;1186;-71
2022/11/22 01:54:42;;;;;;;;;;;24.10;35.40;;;;;;490907;242;1291;-71
2022/11/22 01:56:44;;;;;;;;;;;24.10;35.80;;;;;;490932;242;1216;-71
2022/11/22 01:58:45;;;;;;;;;;;24.10;35.90;;;;;;490849;242;1176;-71
2022/11/22 02:00:46;;;;;;;;;;;24.10;35.60;;;;;;490884;242;1158;-71
2022/11/22 02:02:48;;;;;;;;;;;24.10;35.90;;;;;;490976;242;2193;-71
2022/11/22 02:04:49;;;;;;;;;;;24.10;35.90;;;;;;490897;242;1167;-72
2022/11/22 02:06:50;;;;;;;;;;;24.10;35.90;;;;;;490855;242;1205;-71
2022/11/22 02:08:52;;;;;;;;;;;24.10;35.90;;;;;;490810;242;1182;-71
2022/11/22 02:10:53;;;;;;;;;;;24.10;35.90;;;;;;490858;242;1253;-71
2022/11/22 02:12:54;;;;;;;;;;;24.10;36.50;;;;;;490786;242;1273;-73
2022/11/22 02:14:56;;;;;;;;;;;24.10;35.90;;;;;;490847;242;1185;-72
2022/11/22 02:16:57;;;;;;;;;;;24.10;35.90;;;;;;490848;242;1321;-71
2022/11/22 02:18:58;;;;;;;;;;;24.10;35.90;;;;;;490892;242;1637;-71
2022/11/22 02:21:00;;;;;;;;;;;24.10;35.80;;;;;;490790;242;1356;-71
2022/11/22 02:23:01;;;;;;;;;;;24.10;35.30;;;;;;490782;242;2188;-71
2022/11/22 02:25:02;;;;;;;;;;;24.10;35.90;;;;;;490718;242;1144;-72
2022/11/22 02:27:04;;;;;;;;;;;24.10;36.00;;;;;;490808;242;1344;-71
2022/11/22 02:29:05;;;;;;;;;;;24.20;36.20;;;;;;490785;242;1327;-71
2022/11/22 02:31:06;;;;;;;;;;;24.10;35.60;;;;;;490781;242;1288;-71
2022/11/22 02:33:08;;;;;;;;;;;24.10;36.00;;;;;;490818;242;1223;-71
2022/11/22 02:35:09;;;;;;;;;;;24.10;36.00;;;;;;490743;242;1262;-71
2022/11/22 02:37:10;;;;;;;;;;;24.10;35.70;;;;;;490769;242;1195;-71
2022/11/22 02:39:12;;;;;;;;;;;24.10;36.00;;;;;;490696;242;1224;-72
2022/11/22 02:41:13;;;;;;;;;;;24.10;36.20;;;;;;490728;242;2192;-71
2022/11/22 02:43:14;;;;;;;;;;;24.10;35.60;;;;;;490721;242;1188;-71
2022/11/22 02:45:16;;;;;;;;;;;24.10;36.10;;;;;;490724;242;1198;-71
2022/11/22 02:47:17;;;;;;;;;;;24.10;35.40;;;;;;490695;242;1394;-72
2022/11/22 02:49:18;;;;;;;;;;;24.10;35.60;;;;;;490714;242;1299;-71
2022/11/22 02:51:20;;;;;;;;;;;24.00;36.00;;;;;;490714;242;1155;-71
2022/11/22 02:53:21;;;;;;;;;;;24.00;35.40;;;;;;490811;242;1310;-71
2022/11/22 02:55:22;;;;;;;;;;;24.10;35.80;;;;;;490813;242;1217;-72
2022/11/22 02:57:24;;;;;;;;;;;24.00;35.30;;;;;;490782;242;1267;-72
2022/11/22 02:59:25;;;;;;;;;;;24.00;35.70;;;;;;490694;242;1237;-71
2022/11/22 03:01:26;;;;;;;;;;;24.10;35.10;;;;;;490759;242;2187;-71
2022/11/22 03:03:28;;;;;;;;;;;24.10;35.70;;;;;;490776;242;1251;-71
2022/11/22 03:05:29;;;;;;;;;;;24.20;35.80;;;;;;490739;242;1247;-71
2022/11/22 03:07:30;;;;;;;;;;;24.20;36.00;;;;;;490816;242;1172;-71
2022/11/22 03:09:32;;;;;;;;;;;24.20;36.10;;;;;;490868;242;1193;-72
2022/11/22 03:11:33;;;;;;;;;;;24.20;36.40;;;;;;490828;242;1211;-71
2022/11/22 03:13:34;;;;;;;;;;;24.20;36.90;;;;;;490818;242;1205;-72
2022/11/22 03:15:36;;;;;;;;;;;24.20;36.40;;;;;;490809;242;1150;-71
2022/11/22 03:17:37;;;;;;;;;;;24.20;36.90;;;;;;490816;242;1364;-71
2022/11/22 03:19:38;;;;;;;;;;;24.20;36.80;;;;;;490904;242;1181;-71
2022/11/22 03:21:40;;;;;;;;;;;24.20;36.90;;;;;;490742;242;2232;-71
2022/11/22 03:23:41;;;;;;;;;;;24.20;36.30;;;;;;490874;242;1205;-71
2022/11/22 03:25:42;;;;;;;;;;;24.20;36.40;;;;;;490750;242;1208;-71
2022/11/22 03:27:44;;;;;;;;;;;24.20;36.40;;;;;;490762;242;1153;-71
2022/11/22 03:29:45;;;;;;;;;;;24.20;36.60;;;;;;490741;242;1141;-71
2022/11/22 03:31:46;;;;;;;;;;;24.10;36.30;;;;;;490739;242;1278;-71
2022/11/22 03:33:48;;;;;;;;;;;24.10;36.10;;;;;;490705;242;1289;-72
2022/11/22 03:35:49;;;;;;;;;;;24.10;36.40;;;;;;490731;242;1199;-71
2022/11/22 03:37:50;;;;;;;;;;;24.00;36.40;;;;;;490764;242;1189;-71
2022/11/22 03:39:52;;;;;;;;;;;24.10;36.00;;;;;;490789;242;1269;-71
2022/11/22 03:41:55;;;;;;;;;;;24.10;36.00;;;;;;490884;242;2252;-71
2022/11/22 03:43:55;;;;;;;;;;;24.10;35.70;;;;;;490675;242;1508;-72
2022/11/22 03:45:57;;;;;;;;;;;24.10;35.50;;;;;;490747;242;1612;-71
2022/11/22 03:47:58;;;;;;;;;;;24.10;35.30;;;;;;490725;242;1293;-71
2022/11/22 03:49:59;;;;;;;;;;;24.00;35.10;;;;;;490926;242;1161;-71
2022/11/22 03:52:01;;;;;;;;;;;24.00;35.20;;;;;;490758;242;1188;-71
2022/11/22 03:54:02;;;;;;;;;;;24.00;35.20;;;;;;490778;242;1202;-71
2022/11/22 03:56:03;;;;;;;;;;;23.90;35.00;;;;;;490781;242;1170;-71
2022/11/22 03:58:05;;;;;;;;;;;24.00;34.90;;;;;;490799;242;1171;-71
2022/11/22 04:00:06;;;;;;;;;;;24.00;34.80;;;;;;490811;242;1168;-71
2022/11/22 04:02:07;;;;;;;;;;;23.90;35.00;;;;;;490776;242;2184;-71
2022/11/22 04:04:09;;;;;;;;;;;23.90;34.80;;;;;;490812;242;1195;-71
2022/11/22 04:06:10;;;;;;;;;;;23.90;35.00;;;;;;490763;242;1177;-71
2022/11/22 04:08:11;;;;;;;;;;;23.90;34.60;;;;;;490819;242;1147;-71
2022/11/22 04:10:13;;;;;;;;;;;23.90;34.70;;;;;;490860;242;1225;-71
2022/11/22 04:12:14;;;;;;;;;;;23.90;34.70;;;;;;490876;242;1164;-71
2022/11/22 04:16:34;;;;;;;;;;;23.90;34.70;;;;;;490677;243;1235;-71
2022/11/22 04:18:36;;;;;;;;;;;23.80;34.60;;;;;;490885;242;1170;-71
2022/11/22 04:22:56;;;;;;;;;;;23.90;34.60;;;;;;490956;243;2165;-72
2022/11/22 04:25:16;;;;;;;;;;;23.80;34.50;;;;;;490815;242;1231;-71
2022/11/22 04:27:17;;;;;;;;;;;23.90;34.50;;;;;;490863;242;1651;-71
2022/11/22 04:29:19;;;;;;;;;;;23.80;34.70;;;;;;490810;242;1211;-71
2022/11/22 04:33:44;;;;;;;;;;;23.50;34.80;;;;;;480979;243;1265;-71
2022/11/22 04:35:45;;;;;;;;;;;23.40;35.10;;;;;;490837;242;1200;-71
2022/11/22 04:37:46;;;;;;;;;;;23.40;35.00;;;;;;490851;242;1299;-71
2022/11/22 04:39:48;;;;;;;;;;;23.50;35.00;;;;;;490824;242;1231;-71
2022/11/22 04:44:39;;;;;;;;;;;23.50;35.30;;;;;;490879;242;1227;-72
2022/11/22 04:46:10;;;;;;;;;;;23.50;34.90;;;;;;490903;243;1250;-71
2022/11/22 04:48:11;;;;;;;;;;;23.60;34.90;;;;;;490850;242;1304;-71
2022/11/22 04:52:54;;;;;;;;;;;23.80;34.50;;;;;;480901;243;1326;-71
2022/11/22 04:54:56;;;;;;;;;;;23.90;34.30;;;;;;490910;242;1142;-71
2022/11/22 04:56:57;;;;;;;;;;;23.90;34.30;;;;;;490919;242;1234;-71
2022/11/22 04:58:58;;;;;;;;;;;23.90;34.30;;;;;;490838;242;1249;-71
2022/11/22 05:01:00;;;;;;;;;;;23.90;34.30;;;;;;490845;242;1180;-71
2022/11/22 05:03:01;;;;;;;;;;;23.80;34.30;;;;;;490869;242;2177;-71
2022/11/22 05:05:02;;;;;;;;;;;23.90;34.40;;;;;;490777;242;1327;-71
2022/11/22 05:07:04;;;;;;;;;;;23.90;34.30;;;;;;490824;242;1255;-71
2022/11/22 05:09:05;;;;;;;;;;;23.90;34.40;;;;;;490801;242;1281;-71
2022/11/22 05:11:06;;;;;;;;;;;23.80;34.40;;;;;;490852;242;1609;-71
2022/11/22 05:13:07;;;;;;;;;;;23.80;34.40;;;;;;490797;242;1191;-71
2022/11/22 05:15:09;;;;;;;;;;;23.80;34.30;;;;;;490845;242;1248;-71
2022/11/22 05:17:10;;;;;;;;;;;23.90;34.40;;;;;;490769;242;1316;-71
2022/11/22 05:19:11;;;;;;;;;;;23.90;34.60;;;;;;490816;242;1152;-71
2022/11/22 05:21:13;;;;;;;;;;;23.90;34.30;;;;;;490793;242;1618;-71
2022/11/22 05:25:33;;;;;;;;;;;23.40;34.80;;;;;;490765;243;1167;-71
2022/11/22 05:27:34;;;;;;;;;;;23.40;35.00;;;;;;490837;242;1213;-71
2022/11/22 05:29:36;;;;;;;;;;;23.40;35.00;;;;;;490911;242;1197;-71
2022/11/22 05:31:37;;;;;;;;;;;23.40;35.40;;;;;;490801;242;1162;-71
2022/11/22 05:33:38;;;;;;;;;;;23.40;35.00;;;;;;490901;242;1129;-71
2022/11/22 05:35:40;;;;;;;;;;;23.40;34.90;;;;;;490777;242;1191;-71
2022/11/22 05:37:41;;;;;;;;;;;23.50;35.00;;;;;;490798;242;1156;-71
2022/11/22 05:39:42;;;;;;;;;;;23.40;34.90;;;;;;490837;242;1263;-70
2022/11/22 05:41:54;;;;;;;;;;;23.50;34.80;;;;;;490903;242;1165;-71
2022/11/22 05:43:45;;;;;;;;;;;23.50;34.90;;;;;;490057;243;2192;-71
2022/11/22 05:45:46;;;;;;;;;;;23.40;34.90;;;;;;490798;242;1244;-71
2022/11/22 05:47:48;;;;;;;;;;;23.70;35.10;;;;;;490779;242;1176;-71
2022/11/22 05:49:49;;;;;;;;;;;23.70;34.60;;;;;;490867;242;1211;-71
2022/11/22 05:51:50;;;;;;;;;;;23.80;34.50;;;;;;490807;242;1213;-71
2022/11/22 05:53:52;;;;;;;;;;;23.90;34.40;;;;;;490769;242;1171;-71
2022/11/22 05:55:53;;;;;;;;;;;24.00;34.50;;;;;;490791;242;1192;-71
2022/11/22 05:57:54;;;;;;;;;;;24.00;34.30;;;;;;490738;242;1374;-71
2022/11/22 05:59:56;;;;;;;;;;;23.90;34.30;;;;;;490631;242;1120;-71
2022/11/22 06:01:57;;;;;;;;;;;24.00;34.30;;;;;;490532;242;1187;-71
2022/11/22 06:03:58;;;;;;;;;;;23.80;34.40;;;;;;490555;242;2188;-71
2022/11/22 06:06:00;;;;;;;;;;;23.80;34.40;;;;;;490646;242;1160;-71
2022/11/22 06:08:01;;;;;;;;;;;23.90;34.40;;;;;;490693;242;1243;-71
2022/11/22 06:10:02;;;;;;;;;;;23.80;34.40;;;;;;490707;242;1182;-71
2022/11/22 06:12:04;;;;;;;;;;;23.90;34.40;;;;;;490759;242;1217;-71
2022/11/22 06:14:05;;;;;;;;;;;23.90;34.40;;;;;;490751;242;1182;-71
2022/11/22 06:16:06;;;;;;;;;;;23.90;34.40;;;;;;490731;242;1271;-71
2022/11/22 06:18:08;;;;;;;;;;;23.90;34.60;;;;;;490612;242;1163;-71
2022/11/22 06:20:09;;;;;;;;;;;23.90;34.40;;;;;;490735;242;1268;-71
2022/11/22 06:22:10;;;;;;;;;;;23.70;34.60;;;;;;490690;242;1286;-71
2022/11/22 06:24:11;;;;;;;;;;;23.50;34.80;;;;;;490740;242;2153;-71
2022/11/22 06:26:13;;;;;;;;;;;23.40;35.00;;;;;;490809;242;1223;-71
2022/11/22 06:28:14;;;;;;;;;;;23.40;35.10;;;;;;490738;242;1250;-75
2022/11/22 06:30:15;;;;;;;;;;;23.30;35.00;;;;;;490919;242;1214;-75
2022/11/22 06:32:17;;;;;;;;;;;23.40;35.10;;;;;;490910;242;1234;-75
2022/11/22 06:34:18;;;;;;;;;;;23.40;35.00;;;;;;490858;242;1154;-75
2022/11/22 06:36:19;;;;;;;;;;;23.40;35.10;;;;;;490777;242;1191;-75
2022/11/22 06:38:21;;;;;;;;;;;23.50;35.00;;;;;;490645;242;1242;-75
2022/11/22 06:40:22;;;;;;;;;;;23.70;34.80;;;;;;490707;242;1220;-75
2022/11/22 06:42:23;;;;;;;;;;;23.90;34.50;;;;;;490776;242;1201;-74
2022/11/22 06:44:25;;;;;;;;;;;23.90;34.30;;;;;;490720;242;2165;-75
2022/11/22 06:46:26;;;;;;;;;;;23.90;34.30;;;;;;490792;242;1210;-75
2022/11/22 06:50:48;;;;;;;;;;;23.90;34.30;;;;;;489937;243;1235;-75
2022/11/22 06:52:49;;;;;;;;;;;23.90;34.30;;;;;;490693;242;1201;-75
2022/11/22 06:54:51;;;;;;;;;;;23.90;34.30;;;;;;490678;242;1168;-75
2022/11/22 06:56:52;;;;;;;;;;;23.90;34.30;;;;;;490903;242;1222;-75
2022/11/22 06:58:53;;;;;;;;;;;23.90;34.50;;;;;;490706;242;1174;-75
2022/11/22 07:00:55;;;;;;;;;;;23.80;34.40;;;;;;490728;242;1194;-75
2022/11/22 07:02:56;;;;;;;;;;;23.80;34.50;;;;;;490654;242;2200;-75
2022/11/22 07:04:57;;;;;;;;;;;23.70;34.60;;;;;;490534;242;1271;-75
2022/11/22 07:06:59;;;;;;;;;;;23.70;34.60;;;;;;490547;242;1189;-75
2022/11/22 07:09:00;;;;;;;;;;;23.70;34.60;;;;;;490552;242;1343;-75
2022/11/22 07:11:02;;;;;;;;;;;23.60;34.60;;;;;;490543;242;1198;-75
2022/11/22 07:13:03;;;;;;;;;;;23.70;34.70;;;;;;490486;242;1211;-75
2022/11/22 07:15:04;;;;;;;;;;;23.70;34.80;;;;;;490640;242;1213;-75
2022/11/22 07:17:06;;;;;;;;;;;23.60;34.70;;;;;;490590;242;1245;-75
2022/11/22 07:19:07;;;;;;;;;;;23.60;34.80;;;;;;490694;242;1219;-75
2022/11/22 07:21:08;;;;;;;;;;;23.60;34.80;;;;;;490551;242;1185;-75
2022/11/22 07:23:11;;;;;;;;;;;23.60;34.80;;;;;;490736;242;2195;-75
2022/11/22 07:25:11;;;;;;;;;;;23.40;35.00;;;;;;490644;243;1422;-75
2022/11/22 07:27:12;;;;;;;;;;;23.20;35.40;;;;;;490649;242;1281;-75
2022/11/22 07:29:14;;;;;;;;;;;23.20;35.40;;;;;;490537;242;1181;-75
2022/11/22 07:31:15;;;;;;;;;;;23.10;35.50;;;;;;490532;242;1206;-75
2022/11/22 07:33:16;;;;;;;;;;;23.20;35.60;;;;;;490618;242;1154;-74
2022/11/22 07:35:18;;;;;;;;;;;23.20;35.50;;;;;;490728;242;1175;-74
2022/11/22 07:37:19;;;;;;;;;;;23.20;35.50;;;;;;490322;242;1189;-75
2022/11/22 07:39:20;;;;;;;;;;;23.30;35.40;;;;;;490528;242;1248;-74
2022/11/22 07:41:22;;;;;;;;;;;23.30;35.40;;;;;;490255;242;1162;-75
2022/11/22 07:43:23;;;;;;;;;;;23.40;35.40;;;;;;490231;242;2165;-75
2022/11/22 07:45:24;;;;;;;;;;;23.30;35.30;;;;;;490505;242;1142;-75
2022/11/22 07:47:26;;;;;;;;;;;23.40;35.30;;;;;;490690;242;1157;-75
2022/11/22 07:49:27;;;;;;;;;;;23.50;35.20;;;;;;490577;242;1218;-75
2022/11/22 07:51:28;;;;;;;;;;;23.60;35.00;;;;;;490629;242;1195;-75
2022/11/22 07:53:30;;;;;;;;;;;23.70;34.80;;;;;;490503;242;1204;-75
2022/11/22 07:55:31;;;;;;;;;;;23.80;34.80;;;;;;490319;242;1340;-75
2022/11/22 07:57:32;;;;;;;;;;;23.80;34.90;;;;;;490095;242;1236;-75
2022/11/22 07:59:34;;;;;;;;;;;23.80;34.80;;;;;;490294;242;1207;-75
2022/11/22 08:01:35;;;;;;;;;;;23.80;34.90;;;;;;490238;242;1116;-75
2022/11/22 08:03:36;;;;;;;;;;;23.80;34.80;;;;;;490409;242;2180;-75
2022/11/22 08:05:38;;;;;;;;;;;23.90;34.90;;;;;;490508;242;1182;-75
2022/11/22 08:07:39;;;;;;;;;;;23.80;34.90;;;;;;489903;242;1456;-75
2022/11/22 08:09:40;;;;;;;;;;;23.80;34.90;;;;;;490463;242;1220;-75
2022/11/22 08:11:42;;;;;;;;;;;23.80;34.90;;;;;;490084;242;1157;-75
2022/11/22 08:13:43;;;;;;;;;;;23.70;34.90;;;;;;490532;242;1189;-75
2022/11/22 08:15:47;;;;;;;;;;;23.70;34.80;;;;;;490567;242;1306;-75
2022/11/22 08:17:46;;;;;;;;;;;23.80;34.90;;;;;;490498;243;1391;-75
2022/11/22 08:19:48;;;;;;;;;;;23.80;34.90;;;;;;490696;242;1228;-75
2022/11/22 08:21:49;;;;;;;;;;;23.70;34.80;;;;;;490615;242;1188;-75
2022/11/22 08:23:50;;;;;;;;;;;23.80;34.90;;;;;;490488;242;2177;-75
2022/11/22 08:25:52;;;;;;;;;;;23.70;35.00;;;;;;490559;242;1226;-75
2022/11/22 08:27:53;;;;;;;;;;;23.70;35.00;;;;;;490536;242;1320;-75
2022/11/22 08:29:54;;;;;;;;;;;23.70;35.10;;;;;;490441;242;1188;-75
2022/11/22 08:31:56;;;;;;;;;;;23.40;35.30;;;;;;490548;242;1181;-75
2022/11/22 08:33:57;;;;;;;;;;;23.30;35.50;;;;;;490522;242;1287;-74
2022/11/22 08:35:58;;;;;;;;;;;23.30;35.70;;;;;;490410;242;1443;-75
2022/11/22 08:38:00;;;;;;;;;;;23.30;35.60;;;;;;490483;242;1264;-75
2022/11/22 08:40:01;;;;;;;;;;;23.30;35.60;;;;;;490237;242;1191;-75
2022/11/22 08:42:02;;;;;;;;;;;23.30;35.70;;;;;;490154;242;1212;-74
2022/11/22 08:44:04;;;;;;;;;;;23.30;35.70;;;;;;490143;242;2180;-75
2022/11/22 08:46:05;;;;;;;;;;;23.50;35.40;;;;;;490318;242;1178;-75
2022/11/22 08:48:06;;;;;;;;;;;23.60;35.20;;;;;;490251;242;1121;-75
2022/11/22 08:50:08;;;;;;;;;;;23.70;35.20;;;;;;490235;242;1209;-74
2022/11/22 08:52:09;;;;;;;;;;;23.60;35.10;;;;;;490325;242;1139;-75
2022/11/22 08:54:10;;;;;;;;;;;23.60;35.10;;;;;;490362;242;1256;-75
2022/11/22 08:56:12;;;;;;;;;;;23.60;35.20;;;;;;490240;242;1239;-75
2022/11/22 08:58:13;;;;;;;;;;;23.70;35.20;;;;;;490472;242;1233;-75
2022/11/22 09:00:14;;;;;;;;;;;23.70;35.20;;;;;;490375;242;1352;-75
2022/11/22 09:02:16;;;;;;;;;;;23.50;35.30;;;;;;490420;242;1200;-75
2022/11/22 09:04:17;;;;;;;;;;;23.30;35.50;;;;;;490522;242;2195;-75
2022/11/22 09:06:19;;;;;;;;;;;23.30;35.80;;;;;;490249;242;1269;-74
2022/11/22 09:08:20;;;;;;;;;;;23.20;35.90;;;;;;490315;242;1454;-75
2022/11/22 09:10:21;;;;;;;;;;;23.20;35.90;;;;;;490457;242;1149;-75
2022/11/22 09:12:22;;;;;;;;;;;23.20;35.90;;;;;;490413;242;1191;-75
2022/11/22 09:14:24;;;;;;;;;;;23.20;35.90;;;;;;490446;242;1197;-75
2022/11/22 09:16:27;;;;;;;;;;;23.30;35.90;;;;;;490647;242;1192;-75
2022/11/22 09:18:26;;;;;;;;;;;23.30;35.90;;;;;;490305;243;1449;-75
2022/11/22 09:20:28;;;;;;;;;;;23.30;36.00;;;;;;490115;242;1216;-75
2022/11/22 09:22:29;;;;;;;;;;;23.30;35.80;;;;;;490289;242;1257;-75
2022/11/22 09:24:30;;;;;;;;;;;23.40;35.80;;;;;;490353;242;2188;-75
2022/11/22 09:26:32;;;;;;;;;;;23.60;35.60;;;;;;490471;242;1229;-75
2022/11/22 09:28:33;;;;;;;;;;;23.60;35.40;;;;;;490498;242;1243;-75
2022/11/22 09:30:34;;;;;;;;;;;23.70;35.30;;;;;;490608;242;1165;-75
2022/11/22 09:32:36;;;;;;;;;;;23.70;35.20;;;;;;490494;242;1298;-75
2022/11/22 09:34:37;;;;;;;;;;;23.80;35.20;;;;;;490472;242;1205;-74
2022/11/22 09:36:38;;;;;;;;;;;23.80;35.20;;;;;;490547;242;1201;-74
2022/11/22 09:38:40;;;;;;;;;;;23.80;35.20;;;;;;490589;242;1163;-74
2022/11/22 09:40:41;;;;;;;;;;;23.80;35.20;;;;;;490603;242;1136;-75
2022/11/22 09:42:42;;;;;;;;;;;23.90;35.30;;;;;;490556;242;1176;-75
2022/11/22 09:44:44;;;;;;;;;;;23.90;35.30;;;;;;490359;242;2180;-75
2022/11/22 09:46:45;;;;;;;;;;;23.90;35.30;;;;;;490291;242;1381;-75
2022/11/22 09:48:46;;;;;;;;;;;23.80;35.30;;;;;;490441;242;1502;-75
2022/11/22 09:50:48;;;;;;;;;;;23.80;35.30;;;;;;490495;242;1142;-75
2022/11/22 09:52:49;;;;;;;;;;;23.90;35.30;;;;;;490511;242;1140;-75
2022/11/22 09:54:50;;;;;;;;;;;23.90;35.30;;;;;;490518;242;1134;-75
2022/11/22 09:56:52;;;;;;;;;;;23.90;35.20;;;;;;490397;242;1134;-75
2022/11/22 09:58:53;;;;;;;;;;;23.90;35.20;;;;;;490447;242;1690;-75
2022/11/22 10:00:54;;;;;;;;;;;23.70;35.40;;;;;;490374;242;1391;-75
2022/11/22 10:02:56;;;;;;;;;;;23.50;35.60;;;;;;490266;242;1168;-75
2022/11/22 10:04:57;;;;;;;;;;;23.40;36.00;;;;;;490401;242;2204;-75
2022/11/22 10:06:58;;;;;;;;;;;23.30;36.00;;;;;;490433;242;1135;-75
2022/11/22 10:09:00;;;;;;;;;;;23.40;36.00;;;;;;490576;242;1329;-75
2022/11/22 10:11:01;;;;;;;;;;;23.40;36.00;;;;;;490297;242;1190;-74
2022/11/22 10:13:02;;;;;;;;;;;23.50;36.10;;;;;;490336;242;1365;-75
2022/11/22 10:15:04;;;;;;;;;;;23.60;35.80;;;;;;490459;242;1253;-75
2022/11/22 10:17:05;;;;;;;;;;;23.70;35.70;;;;;;490332;242;1452;-75
2022/11/22 10:19:06;;;;;;;;;;;23.70;35.70;;;;;;490325;242;1146;-75
2022/11/22 10:21:08;;;;;;;;;;;23.70;35.50;;;;;;490533;242;1379;-75
2022/11/22 10:23:09;;;;;;;;;;;23.80;35.40;;;;;;490338;242;1125;-75
2022/11/22 10:25:10;;;;;;;;;;;23.50;35.60;;;;;;490359;242;2188;-75
2022/11/22 10:27:12;;;;;;;;;;;23.40;35.80;;;;;;490500;242;1177;-75
2022/11/22 10:29:13;;;;;;;;;;;23.30;36.00;;;;;;490254;242;1238;-75
2022/11/22 10:31:15;;;;;;;;;;;23.30;36.10;;;;;;490434;242;1201;-75
2022/11/22 10:33:16;;;;;;;;;;;23.30;36.00;;;;;;490409;242;1177;-75
2022/11/22 10:35:17;;;;;;;;;;;23.30;36.00;;;;;;490407;242;1257;-75
2022/11/22 10:37:18;;;;;;;;;;;23.40;35.90;;;;;;490358;242;1280;-75
2022/11/22 10:39:20;;;;;;;;;;;23.40;35.70;;;;;;490448;242;1194;-75
2022/11/22 10:41:21;;;;;;;;;;;23.30;35.80;;;;;;490356;242;1177;-75
2022/11/22 10:43:22;;;;;;;;;;;23.40;35.80;;;;;;490334;242;1249;-75
2022/11/22 10:45:24;;;;;;;;;;;23.40;35.70;;;;;;490343;242;2204;-75
2022/11/22 10:47:25;;;;;;;;;;;23.30;35.80;;;;;;490482;242;1189;-75
2022/11/22 10:49:26;;;;;;;;;;;23.20;36.00;;;;;;490355;242;1223;-75
2022/11/22 10:51:28;;;;;;;;;;;23.10;36.10;;;;;;490406;242;1178;-75
2022/11/22 10:53:29;;;;;;;;;;;23.20;37.00;;;;;;490376;242;1176;-75
2022/11/22 10:55:30;;;;;;;;;;;23.20;36.40;;;;;;490412;242;1693;-75
2022/11/22 10:57:32;;;;;;;;;;;23.30;36.60;;;;;;490414;242;1303;-75
2022/11/22 10:59:33;;;;;;;;;;;23.40;36.10;;;;;;490449;242;1167;-75
2022/11/22 11:01:34;;;;;;;;;;;23.40;36.10;;;;;;490208;242;1238;-74
2022/11/22 11:03:36;;;;;;;;;;;23.30;36.60;;;;;;490223;242;1135;-75
2022/11/22 11:05:37;;;;;;;;;;;23.30;36.20;;;;;;490385;242;2197;-75
2022/11/22 11:07:38;;;;;;;;;;;23.30;36.20;;;;;;490404;242;1279;-75
2022/11/22 11:09:40;;;;;;;;;;;23.30;36.20;;;;;;490390;242;1161;-75
2022/11/22 11:11:41;;;;;;;;;;;23.30;36.20;;;;;;490235;242;1266;-75
2022/11/22 11:13:42;;;;;;;;;;;23.30;36.10;;;;;;490401;242;1147;-75
2022/11/22 11:15:44;;;;;;;;;;;23.50;36.00;;;;;;490298;242;1162;-75
2022/11/22 11:17:45;;;;;;;;;;;23.60;35.80;;;;;;490294;242;1177;-75
2022/11/22 11:19:46;;;;;;;;;;;23.70;35.70;;;;;;490279;242;1210;-75
2022/11/22 11:21:48;;;;;;;;;;;23.80;35.80;;;;;;490076;242;1137;-75
2022/11/22 11:23:49;;;;;;;;;;;23.80;35.90;;;;;;490606;242;1297;-75
2022/11/22 11:25:51;;;;;;;;;;;23.70;35.70;;;;;;490356;242;2180;-75
2022/11/22 11:27:52;;;;;;;;;;;23.80;35.60;;;;;;490551;242;1174;-75
2022/11/22 11:29:53;;;;;;;;;;;23.80;35.70;;;;;;490568;242;1152;-75
2022/11/22 11:31:54;;;;;;;;;;;23.70;35.70;;;;;;490486;242;1175;-76
2022/11/22 11:33:56;;;;;;;;;;;23.80;35.60;;;;;;490473;242;1197;-64
2022/11/22 11:35:57;;;;;;;;;;;23.50;36.40;;;;;;497946;229;3559;-76
2022/11/22 11:37:58;;;;;;;;;;;23.10;36.90;;;;;;497751;239;1108;-76
2022/11/22 11:40:00;;;;;;;;;;;23.30;36.60;;;;;;497829;239;1149;-76
2022/11/22 11:42:01;;;;;;;;;;;23.50;36.30;;;;;;497699;239;1104;-76
2022/11/22 11:44:02;;;;;;;;;;;23.70;36.10;;;;;;497729;239;1208;-76
2022/11/22 11:46:04;;;;;;;;;;;23.80;36.00;;;;;;497699;239;2189;-76
2022/11/22 11:48:05;;;;;;;;;;;23.70;35.90;;;;;;497657;239;1222;-76
2022/11/22 11:50:06;;;;;;;;;;;23.80;35.60;;;;;;497857;239;1140;-76
2022/11/22 11:52:07;;;;;;;;;;;23.80;35.50;;;;;;497538;239;1136;-77
2022/11/22 11:54:09;;;;;;;;;;;23.80;35.60;;;;;;497641;239;1319;-76
2022/11/22 11:56:10;;;;;;;;;;;23.80;35.90;;;;;;497462;239;1168;-76
2022/11/22 11:58:11;;;;;;;;;;;23.80;35.60;;;;;;497740;239;1192;-77
2022/11/22 12:00:13;;;;;;;;;;;23.80;35.50;;;;;;497781;239;1335;-76
2022/11/22 12:02:15;;;;;;;;;;;23.90;35.60;;;;;;497660;239;1230;-76
2022/11/22 12:04:15;;;;;;;;;;;23.80;35.50;;;;;;497632;239;1163;-77
2022/11/22 12:06:17;;;;;;;;;;;23.80;35.60;;;;;;497756;239;2189;-77
2022/11/22 12:08:18;;;;;;;;;;;23.90;35.70;;;;;;497666;239;1132;-76
2022/11/22 12:10:19;;;;;;;;;;;23.80;35.50;;;;;;497710;239;1316;-76
2022/11/22 12:12:21;;;;;;;;;;;23.70;35.70;;;;;;497621;239;1182;-76
2022/11/22 12:14:22;;;;;;;;;;;23.60;36.00;;;;;;497838;239;1174;-76